Wetterstation Vordersexau
Wetterdaten: Woche 22.09.14 - 28.09.14 (KW39)
Datum Zeit Temp. A. Feuchte A. Luftdruck Regen Wind Richtung Taupunkt Windchill Windben
22.09.2014 00:00 13,4 C 83 % 990,4 hPa 0,0 l/m 0,0 km/h N-NO 10,6 C 13,4 C 0,0 km/h
22.09.2014 01:00 12,2 C 84 % 990,2 hPa 0,0 l/m 0,0 km/h N 9,6 C 12,2 C 0,0 km/h
22.09.2014 02:00 12,0 C 83 % 990,5 hPa 0,0 l/m 0,0 km/h N-NO 9,2 C 12,0 C 0,0 km/h
22.09.2014 03:00 10,4 C 84 % 990,5 hPa 0,0 l/m 0,0 km/h N-NO 7,8 C 10,4 C 0,0 km/h
22.09.2014 04:00 8,9 C 84 % 990,8 hPa 0,0 l/m 0,0 km/h N-NO 6,3 C 8,9 C 0,0 km/h
22.09.2014 05:00 8,8 C 84 % 990,9 hPa 0,0 l/m 0,0 km/h N-NO 6,2 C 8,8 C 0,0 km/h
22.09.2014 06:00 9,4 C 84 % 991,3 hPa 0,0 l/m 0,0 km/h N-NO 6,8 C 9,4 C 0,0 km/h
22.09.2014 07:00 8,9 C 83 % 991,5 hPa 0,0 l/m 0,0 km/h N-NO 6,2 C 8,9 C 0,0 km/h
22.09.2014 08:00 10,4 C 80 % 991,5 hPa 0,0 l/m 0,0 km/h N-NO 7,1 C 10,4 C 0,0 km/h
22.09.2014 09:00 11,9 C 80 % 991,9 hPa 0,0 l/m 0,0 km/h SW 8,6 C 11,9 C 0,0 km/h
22.09.2014 10:00 14,4 C 82 % 992,0 hPa 0,0 l/m 0,0 km/h S-SW 11,4 C 14,4 C 0,0 km/h
22.09.2014 11:00 16,1 C 77 % 991,8 hPa 0,0 l/m 0,0 km/h N-NO 12,1 C 16,1 C 0,0 km/h
22.09.2014 12:00 18,2 C 72 % 991,3 hPa 0,0 l/m 0,0 km/h W-NW 13,1 C 18,2 C 0,0 km/h
22.09.2014 13:00 16,6 C 65 % 990,6 hPa 0,0 l/m 0,0 km/h W-NW 10,0 C 16,6 C 0,0 km/h
22.09.2014 14:00 19,8 C 55 % 990,0 hPa 0,0 l/m 7,1 km/h N-NO 10,5 C 19,5 C 4,0 km/h
22.09.2014 15:00 15,8 C 59 % 990,2 hPa 0,0 l/m 3,2 km/h N 7,8 C 15,8 C 1,8 km/h
22.09.2014 16:00 15,9 C 62 % 990,4 hPa 0,0 l/m 0,0 km/h N-NO 8,6 C 15,9 C 0,0 km/h
22.09.2014 17:00 22,5 C 50 % 990,4 hPa 0,0 l/m 0,0 km/h N 11,5 C 22,5 C 0,0 km/h
22.09.2014 18:00 17,1 C 63 % 990,4 hPa 0,0 l/m 0,0 km/h N-NO 10,0 C 17,1 C 0,0 km/h
22.09.2014 19:00 10,9 C 79 % 991,7 hPa 0,6 l/m 0,0 km/h N-NO 7,4 C 10,9 C 0,0 km/h
22.09.2014 20:00 9,8 C 82 % 992,3 hPa 0,0 l/m 0,0 km/h N-NO 6,9 C 9,8 C 0,0 km/h
22.09.2014 21:00 8,5 C 85 % 992,4 hPa 0,0 l/m 0,0 km/h NO 6,1 C 8,5 C 0,0 km/h
22.09.2014 22:00 7,2 C 85 % 992,8 hPa 0,0 l/m 0,0 km/h O-SO 4,9 C 7,2 C 0,0 km/h
22.09.2014 23:00 6,1 C 86 % 992,5 hPa 0,0 l/m 0,0 km/h O-NO 3,9 C 6,1 C 0,0 km/h
23.09.2014 00:00 5,5 C 86 % 992,5 hPa 0,0 l/m 0,0 km/h O-NO 3,3 C 5,5 C 0,0 km/h
23.09.2014 01:00 4,9 C 86 % 992,7 hPa 0,2 l/m 0,0 km/h O-SO 2,8 C 4,9 C 0,0 km/h
23.09.2014 02:00 4,4 C 87 % 992,8 hPa 0,0 l/m 0,0 km/h SO 2,4 C 4,4 C 0,0 km/h
23.09.2014 03:00 4,2 C 86 % 992,4 hPa 0,0 l/m 0,0 km/h N-NO 2,1 C 4,2 C 0,0 km/h
23.09.2014 04:00 3,8 C 86 % 992,7 hPa 0,0 l/m 0,0 km/h SO 1,7 C 3,8 C 0,0 km/h
23.09.2014 05:00 4,2 C 86 % 992,3 hPa 0,0 l/m 5,8 km/h O-SO 2,1 C 4,2 C 3,2 km/h
23.09.2014 06:00 4,6 C 85 % 992,7 hPa 0,0 l/m 0,0 km/h O-SO 2,3 C 4,6 C 0,0 km/h
23.09.2014 07:00 4,5 C 85 % 992,7 hPa 0,0 l/m 0,0 km/h SO 2,2 C 4,5 C 0,0 km/h
23.09.2014 08:00 6,5 C 83 % 992,6 hPa 0,0 l/m 0,0 km/h S-SO 3,8 C 6,5 C 0,0 km/h
23.09.2014 09:00 11,5 C 83 % 993,2 hPa 0,0 l/m 3,2 km/h N 8,7 C 11,5 C 1,8 km/h
23.09.2014 10:00 17,3 C 68 % 993,0 hPa 0,0 l/m 0,0 km/h W 11,3 C 17,3 C 0,0 km/h
23.09.2014 11:00 20,4 C 59 % 991,2 hPa 0,0 l/m 0,0 km/h N 12,1 C 20,4 C 0,0 km/h
23.09.2014 12:00 21,9 C 52 % 990,1 hPa 0,0 l/m 0,0 km/h N-NO 11,6 C 21,9 C 0,0 km/h
23.09.2014 13:00 21,0 C 47 % 989,2 hPa 0,0 l/m 1,3 km/h N-NW 9,3 C 21,0 C 0,7 km/h
23.09.2014 14:00 23,3 C 42 % 988,2 hPa 0,0 l/m 2,6 km/h N-NO 9,7 C 23,3 C 1,4 km/h
23.09.2014 15:00 25,4 C 40 % 987,4 hPa 0,0 l/m 8,4 km/h N-NO 10,8 C 24,9 C 4,7 km/h
23.09.2014 16:00 27,0 C 37 % 986,9 hPa 0,0 l/m 0,0 km/h N-NO 11,1 C 27,0 C 0,0 km/h
23.09.2014 17:00 27,8 C 36 % 986,5 hPa 0,0 l/m 0,0 km/h NW 11,3 C 27,8 C 0,0 km/h
23.09.2014 18:00 21,5 C 47 % 986,9 hPa 0,0 l/m 0,0 km/h N-NO 9,7 C 21,5 C 0,0 km/h
23.09.2014 19:00 13,1 C 69 % 987,4 hPa 0,0 l/m 0,0 km/h O-SO 7,5 C 13,1 C 0,0 km/h
23.09.2014 20:00 9,4 C 76 % 988,2 hPa 0,0 l/m 0,0 km/h O-SO 5,4 C 9,4 C 0,0 km/h
23.09.2014 21:00 8,6 C 82 % 988,5 hPa 0,0 l/m 0,0 km/h O-NO 5,7 C 8,6 C 0,0 km/h
23.09.2014 22:00 7,6 C 84 % 988,1 hPa 0,0 l/m 0,0 km/h O-NO 5,1 C 7,6 C 0,0 km/h
23.09.2014 23:00 5,8 C 84 % 987,9 hPa 0,0 l/m 0,0 km/h O-NO 3,3 C 5,8 C 0,0 km/h
24.09.2014 00:00 5,8 C 85 % 987,9 hPa 0,0 l/m 0,0 km/h O-NO 3,5 C 5,8 C 0,0 km/h
24.09.2014 01:00 5,6 C 86 % 987,8 hPa 0,0 l/m 0,0 km/h SO 3,4 C 5,6 C 0,0 km/h
24.09.2014 02:00 5,5 C 86 % 987,2 hPa 0,0 l/m 0,0 km/h SO 3,3 C 5,5 C 0,0 km/h
24.09.2014 03:00 4,8 C 86 % 986,8 hPa 0,0 l/m 0,0 km/h O-SO 2,7 C 4,8 C 0,0 km/h
24.09.2014 04:00 4,8 C 86 % 986,2 hPa 0,0 l/m 0,0 km/h O 2,7 C 4,8 C 0,0 km/h
24.09.2014 05:00 4,9 C 86 % 985,7 hPa 0,0 l/m 0,0 km/h SO 2,8 C 4,9 C 0,0 km/h
24.09.2014 06:00 5,1 C 86 % 985,7 hPa 0,0 l/m 0,0 km/h SO 3,0 C 5,1 C 0,0 km/h
24.09.2014 07:00 5,4 C 86 % 985,9 hPa 0,0 l/m 0,0 km/h SO 3,3 C 5,4 C 0,0 km/h
24.09.2014 08:00 8,3 C 83 % 985,9 hPa 0,0 l/m 0,0 km/h O 5,6 C 8,3 C 0,0 km/h
24.09.2014 09:00 14,1 C 80 % 985,8 hPa 0,0 l/m 0,0 km/h W-SW 10,7 C 14,1 C 0,0 km/h
24.09.2014 10:00 21,1 C 60 % 985,5 hPa 0,0 l/m 0,0 km/h W 13,0 C 21,1 C 0,0 km/h
24.09.2014 11:00 23,8 C 49 % 985,1 hPa 0,0 l/m 0,0 km/h W-SW 12,4 C 23,8 C 0,0 km/h
24.09.2014 12:00 19,5 C 58 % 984,9 hPa 0,0 l/m 0,0 km/h W-NW 11,0 C 19,5 C 0,0 km/h
24.09.2014 13:00 20,6 C 61 % 984,2 hPa 0,0 l/m 0,0 km/h W-SW 12,8 C 20,6 C 0,0 km/h
24.09.2014 14:00 20,7 C 56 % 984,1 hPa 0,0 l/m 9,1 km/h W-SW 11,6 C 19,7 C 5,0 km/h
24.09.2014 15:00 18,9 C 60 % 983,8 hPa 0,0 l/m 0,6 km/h W 11,0 C 18,9 C 0,4 km/h
24.09.2014 16:00 16,8 C 68 % 983,9 hPa 0,0 l/m 0,0 km/h W-NW 10,9 C 16,8 C 0,0 km/h
24.09.2014 17:00 14,8 C 77 % 984,4 hPa 0,2 l/m 0,6 km/h W 10,8 C 14,8 C 0,4 km/h
24.09.2014 18:00 12,3 C 84 % 985,1 hPa 0,8 l/m 0,0 km/h W-SW 9,7 C 12,3 C 0,0 km/h
24.09.2014 19:00 12,1 C 84 % 985,4 hPa 0,6 l/m 0,0 km/h O 9,5 C 12,1 C 0,0 km/h
24.09.2014 20:00 11,9 C 85 % 985,8 hPa 0,4 l/m 0,0 km/h O 9,5 C 11,9 C 0,0 km/h
24.09.2014 21:00 11,9 C 85 % 986,0 hPa 0,4 l/m 0,0 km/h NO 9,5 C 11,9 C 0,0 km/h
24.09.2014 22:00 11,2 C 86 % 986,1 hPa 0,0 l/m 0,0 km/h NO 8,9 C 11,2 C 0,0 km/h
24.09.2014 23:00 10,1 C 86 % 986,4 hPa 0,0 l/m 0,0 km/h O 7,9 C 10,1 C 0,0 km/h
25.09.2014 00:00 9,2 C 86 % 986,8 hPa 0,0 l/m 0,0 km/h O-NO 7,0 C 9,2 C 0,0 km/h
25.09.2014 01:00 9,5 C 85 % 987,3 hPa 0,0 l/m 0,0 km/h N-NO 7,1 C 9,5 C 0,0 km/h
25.09.2014 02:00 10,3 C 84 % 987,7 hPa 0,0 l/m 0,0 km/h N-NO 7,7 C 10,3 C 0,0 km/h
25.09.2014 03:00 10,6 C 84 % 987,8 hPa 0,0 l/m 0,0 km/h O-SO 8,0 C 10,6 C 0,0 km/h
25.09.2014 04:00 10,8 C 84 % 988,1 hPa 0,0 l/m 0,0 km/h NO 8,2 C 10,8 C 0,0 km/h
25.09.2014 05:00 11,1 C 83 % 988,8 hPa 0,2 l/m 0,0 km/h NO 8,3 C 11,1 C 0,0 km/h
25.09.2014 06:00 11,1 C 83 % 989,1 hPa 0,2 l/m 0,0 km/h O-NO 8,3 C 11,1 C 0,0 km/h
25.09.2014 07:00 11,3 C 83 % 989,9 hPa 0,0 l/m 0,0 km/h W 8,5 C 11,3 C 0,0 km/h
25.09.2014 08:00 11,9 C 83 % 990,0 hPa 0,0 l/m 0,0 km/h NW 9,1 C 11,9 C 0,0 km/h
25.09.2014 09:00 12,9 C 83 % 991,1 hPa 0,0 l/m 0,0 km/h W-NW 10,1 C 12,9 C 0,0 km/h
25.09.2014 10:00 17,3 C 86 % 991,2 hPa 0,0 l/m 0,0 km/h S-SO 14,9 C 17,3 C 0,0 km/h
25.09.2014 11:00 20,8 C 67 % 991,8 hPa 0,0 l/m 3,9 km/h N-NO 14,4 C 20,8 C 2,2 km/h
25.09.2014 12:00 16,3 C 67 % 992,4 hPa 0,0 l/m 0,0 km/h S-SW 10,2 C 16,3 C 0,0 km/h
25.09.2014 13:00 19,3 C 64 % 992,4 hPa 0,0 l/m 0,0 km/h W 12,3 C 19,3 C 0,0 km/h
25.09.2014 14:00 18,4 C 61 % 992,9 hPa 0,0 l/m 0,0 km/h S-SO 10,7 C 18,4 C 0,0 km/h
25.09.2014 15:00 24,3 C 48 % 992,6 hPa 0,0 l/m 4,5 km/h W-SW 12,6 C 24,3 C 2,5 km/h
25.09.2014 16:00 25,9 C 42 % 992,4 hPa 0,0 l/m 0,0 km/h N-NO 12,0 C 25,9 C 0,0 km/h
25.09.2014 17:00 18,6 C 56 % 992,7 hPa 0,0 l/m 5,2 km/h O 9,6 C 18,6 C 2,9 km/h
25.09.2014 18:00 16,9 C 64 % 993,1 hPa 0,0 l/m 0,0 km/h O-SO 10,0 C 16,9 C 0,0 km/h
25.09.2014 19:00 11,0 C 78 % 993,9 hPa 0,0 l/m 0,0 km/h O-SO 7,3 C 11,0 C 0,0 km/h
25.09.2014 20:00 9,6 C 83 % 994,3 hPa 0,0 l/m 0,0 km/h O-SO 6,9 C 9,6 C 0,0 km/h
25.09.2014 21:00 8,9 C 85 % 994,7 hPa 0,0 l/m 0,0 km/h SO 6,5 C 8,9 C 0,0 km/h
25.09.2014 22:00 8,3 C 86 % 995,0 hPa 0,0 l/m 0,0 km/h SO 6,1 C 8,3 C 0,0 km/h
25.09.2014 23:00 7,6 C 86 % 995,1 hPa 0,0 l/m 0,0 km/h SO 5,4 C 7,6 C 0,0 km/h
26.09.2014 00:00 7,5 C 86 % 995,2 hPa 0,0 l/m 1,4 km/h O 5,3 C 7,5 C 1,4 km/h
26.09.2014 01:00 7,3 C 86 % 995,4 hPa 0,0 l/m 0,0 km/h O-SO 5,1 C 7,3 C 0,0 km/h
26.09.2014 02:00 6,9 C 86 % 995,8 hPa 0,0 l/m 0,0 km/h O-SO 4,7 C 6,9 C 0,0 km/h
26.09.2014 03:00 6,6 C 86 % 995,7 hPa 0,0 l/m 0,0 km/h SO 4,4 C 6,6 C 0,0 km/h
26.09.2014 04:00 6,5 C 86 % 995,3 hPa 0,0 l/m 0,0 km/h SO 4,3 C 6,5 C 0,0 km/h
26.09.2014 05:00 5,9 C 86 % 995,1 hPa 0,0 l/m 0,0 km/h SO 3,7 C 5,9 C 0,0 km/h
26.09.2014 06:00 5,3 C 86 % 995,9 hPa 0,0 l/m 0,0 km/h O-NO 3,2 C 5,3 C 0,0 km/h
26.09.2014 07:00 5,4 C 85 % 996,2 hPa 0,0 l/m 0,0 km/h O-NO 3,1 C 5,4 C 0,0 km/h
26.09.2014 08:00 6,9 C 84 % 996,6 hPa 0,0 l/m 0,0 km/h SO 4,4 C 6,9 C 0,0 km/h
26.09.2014 09:00 10,3 C 82 % 996,8 hPa 0,0 l/m 0,0 km/h SO 7,4 C 10,3 C 0,0 km/h
26.09.2014 10:00 14,1 C 86 % 997,1 hPa 0,0 l/m 0,0 km/h SO 11,8 C 14,1 C 0,0 km/h
26.09.2014 11:00 18,6 C 71 % 997,0 hPa 0,0 l/m 0,0 km/h S-SO 13,2 C 18,6 C 0,0 km/h
26.09.2014 12:00 20,4 C 63 % 996,9 hPa 0,0 l/m 0,0 km/h W 13,1 C 20,4 C 0,0 km/h
26.09.2014 13:00 22,4 C 53 % 996,4 hPa 0,0 l/m 0,0 km/h W 12,3 C 22,4 C 0,0 km/h
26.09.2014 14:00 24,1 C 45 % 995,8 hPa 0,0 l/m 0,0 km/h W-NW 11,4 C 24,1 C 0,0 km/h
26.09.2014 15:00 27,5 C 38 % 995,7 hPa 0,0 l/m 0,0 km/h W-SW 11,9 C 27,5 C 0,0 km/h
26.09.2014 16:00 28,4 C 38 % 995,5 hPa 0,0 l/m 0,0 km/h N-NO 12,7 C 28,4 C 0,0 km/h
26.09.2014 17:00 29,2 C 37 % 995,6 hPa 0,0 l/m 0,0 km/h N-NO 13,0 C 29,2 C 0,0 km/h
26.09.2014 18:00 24,3 C 46 % 995,6 hPa 0,0 l/m 0,0 km/h O-SO 11,9 C 24,3 C 0,0 km/h
26.09.2014 19:00 13,5 C 71 % 996,3 hPa 0,0 l/m 0,0 km/h O 8,3 C 13,5 C 0,0 km/h
26.09.2014 20:00 11,3 C 78 % 996,9 hPa 0,0 l/m 0,0 km/h NO 7,6 C 11,3 C 0,0 km/h
26.09.2014 21:00 10,9 C 83 % 997,2 hPa 0,0 l/m 0,0 km/h SO 8,1 C 10,9 C 0,0 km/h
26.09.2014 22:00 10,3 C 84 % 997,3 hPa 0,0 l/m 0,0 km/h SO 7,7 C 10,3 C 0,0 km/h
26.09.2014 23:00 9,3 C 84 % 997,5 hPa 0,0 l/m 0,4 km/h SO 6,7 C 9,3 C 0,4 km/h
27.09.2014 00:00 9,0 C 85 % 997,6 hPa 0,0 l/m 0,0 km/h SO 6,6 C 9,0 C 0,0 km/h
27.09.2014 01:00 8,6 C 86 % 997,5 hPa 0,0 l/m 0,0 km/h NO 6,4 C 8,6 C 0,0 km/h
27.09.2014 02:00 8,5 C 86 % 997,3 hPa 0,0 l/m 0,0 km/h NO 6,3 C 8,5 C 0,0 km/h
27.09.2014 03:00 8,1 C 86 % 997,1 hPa 0,0 l/m 0,0 km/h NO 5,9 C 8,1 C 0,0 km/h
27.09.2014 04:00 7,7 C 86 % 996,8 hPa 0,0 l/m 0,0 km/h O-SO 5,5 C 7,7 C 0,0 km/h
27.09.2014 05:00 7,3 C 86 % 996,7 hPa 0,0 l/m 0,0 km/h O 5,1 C 7,3 C 0,0 km/h
27.09.2014 06:00 6,6 C 86 % 996,9 hPa 0,0 l/m 0,0 km/h O-NO 4,4 C 6,6 C 0,0 km/h
27.09.2014 07:00 6,7 C 86 % 997,2 hPa 0,0 l/m 0,0 km/h N 4,5 C 6,7 C 0,0 km/h
27.09.2014 08:00 9,5 C 84 % 997,8 hPa 0,0 l/m 0,0 km/h W 6,9 C 9,5 C 0,0 km/h
27.09.2014 09:00 16,3 C 77 % 998,2 hPa 0,0 l/m 0,0 km/h W 12,3 C 16,3 C 0,0 km/h
27.09.2014 10:00 21,1 C 63 % 998,0 hPa 0,0 l/m 0,0 km/h S-SW 13,8 C 21,1 C 0,0 km/h
27.09.2014 11:00 23,9 C 55 % 997,9 hPa 0,0 l/m 0,0 km/h W-NW 14,3 C 23,9 C 0,0 km/h
27.09.2014 12:00 24,7 C 54 % 997,8 hPa 0,0 l/m 0,0 km/h W-SW 14,8 C 24,7 C 0,0 km/h
27.09.2014 13:00 24,6 C 57 % 997,1 hPa 0,0 l/m 0,0 km/h S-SW 15,5 C 24,6 C 0,0 km/h
27.09.2014 14:00 26,9 C 53 % 996,5 hPa 0,0 l/m 0,0 km/h W 16,5 C 26,9 C 0,0 km/h
27.09.2014 15:00 29,3 C 47 % 996,2 hPa 0,0 l/m 0,0 km/h W 16,8 C 29,3 C 0,0 km/h
27.09.2014 16:00 29,8 C 45 % 995,6 hPa 0,0 l/m 0,6 km/h W-SW 16,6 C 29,8 C 0,4 km/h
27.09.2014 17:00 28,5 C 49 % 995,5 hPa 0,0 l/m 0,0 km/h S-SO 16,7 C 28,5 C 0,0 km/h
27.09.2014 18:00 24,1 C 57 % 995,6 hPa 0,0 l/m 0,0 km/h O-NO 15,0 C 24,1 C 0,0 km/h
27.09.2014 19:00 16,4 C 78 % 995,8 hPa 0,0 l/m 0,0 km/h SO 12,6 C 16,4 C 0,0 km/h
27.09.2014 20:00 14,7 C 83 % 996,1 hPa 0,0 l/m 0,0 km/h SO 11,8 C 14,7 C 0,0 km/h
27.09.2014 21:00 13,0 C 84 % 996,2 hPa 0,0 l/m 0,0 km/h N-NO 10,4 C 13,0 C 0,0 km/h
27.09.2014 22:00 12,3 C 85 % 996,3 hPa 0,0 l/m 0,0 km/h N-NO 9,9 C 12,3 C 0,0 km/h
27.09.2014 23:00 11,9 C 85 % 996,1 hPa 0,0 l/m 0,0 km/h N-NO 9,5 C 11,9 C 0,0 km/h
28.09.2014 00:00 11,3 C 86 % 996,1 hPa 0,0 l/m 0,0 km/h N-NO 9,0 C 11,3 C 0,0 km/h
28.09.2014 01:00 11,5 C 86 % 996,1 hPa 0,0 l/m 0,0 km/h SO 9,2 C 11,5 C 0,0 km/h
28.09.2014 02:00 11,1 C 86 % 995,9 hPa 0,0 l/m 0,0 km/h NO 8,8 C 11,1 C 0,0 km/h
28.09.2014 03:00 10,5 C 85 % 995,8 hPa 0,0 l/m 0,0 km/h SO 8,1 C 10,5 C 0,0 km/h
28.09.2014 04:00 9,7 C 86 % 995,7 hPa 0,0 l/m 0,0 km/h SO 7,5 C 9,7 C 0,0 km/h
28.09.2014 05:00 9,1 C 86 % 995,4 hPa 0,0 l/m 0,0 km/h SO 6,9 C 9,1 C 0,0 km/h
28.09.2014 06:00 9,3 C 85 % 995,2 hPa 0,0 l/m 0,0 km/h NO 6,9 C 9,3 C 0,0 km/h
28.09.2014 07:00 9,8 C 85 % 995,3 hPa 0,0 l/m 0,0 km/h SO 7,4 C 9,8 C 0,0 km/h
28.09.2014 08:00 12,1 C 81 % 995,7 hPa 0,0 l/m 0,0 km/h SO 8,9 C 12,1 C 0,0 km/h
28.09.2014 09:00 17,8 C 84 % 995,9 hPa 0,0 l/m 0,0 km/h S-SO 15,1 C 17,8 C 0,0 km/h
28.09.2014 10:00 25,4 C 61 % 996,3 hPa 0,0 l/m 0,0 km/h NW 17,3 C 25,4 C 0,0 km/h
28.09.2014 11:00 27,3 C 53 % 996,1 hPa 0,0 l/m 0,0 km/h S-SO 16,9 C 27,3 C 0,0 km/h
28.09.2014 12:00 27,4 C 52 % 995,8 hPa 0,0 l/m 0,0 km/h W-SW 16,7 C 27,4 C 0,0 km/h
28.09.2014 13:00 27,8 C 52 % 995,4 hPa 0,0 l/m 0,0 km/h W 17,0 C 27,8 C 0,0 km/h
28.09.2014 14:00 28,8 C 48 % 994,9 hPa 0,0 l/m 0,0 km/h W 16,7 C 28,8 C 0,0 km/h
28.09.2014 15:00 32,5 C 41 % 994,6 hPa 0,0 l/m 0,0 km/h SO 17,5 C 32,5 C 0,0 km/h
28.09.2014 16:00 33,9 C 38 % 994,0 hPa 0,0 l/m 0,0 km/h W-SW 17,5 C 33,9 C 0,0 km/h
28.09.2014 17:00 32,8 C 41 % 993,8 hPa 0,0 l/m 0,0 km/h W 17,8 C 32,8 C 0,0 km/h
28.09.2014 18:00 26,0 C 54 % 993,9 hPa 0,0 l/m 0,0 km/h SO 16,0 C 26,0 C 0,0 km/h
28.09.2014 19:00 16,9 C 76 % 994,3 hPa 0,0 l/m 0,0 km/h O 12,6 C 16,9 C 0,0 km/h
28.09.2014 20:00 15,2 C 81 % 994,8 hPa 0,0 l/m 0,0 km/h O-NO 12,0 C 15,2 C 0,0 km/h
28.09.2014 21:00 14,6 C 83 % 995,2 hPa 0,0 l/m 0,0 km/h SO 11,7 C 14,6 C 0,0 km/h
28.09.2014 22:00 13,9 C 84 % 995,6 hPa 0,0 l/m 0,0 km/h NO 11,2 C 13,9 C 0,0 km/h
28.09.2014 23:00 13,1 C 85 % 995,6 hPa 0,0 l/m 0,0 km/h O-NO 10,6 C 13,1 C 0,0 km/h
Min-Datum _ 23.09.14 23.09.14 24.09.14 - 22.09.14 - 23.09.14 23.09.14 22.09.14
_ Min-Zeit 04:53 17:53 15:53 - 00:53 - 04:53 04:53 00:53
Minimum _ 3,8 C 36 % 983,8 hPa - 0,0 km/h - 1,7 C 3,8 C 0,0 km/h
Max-Datum _ 28.09.14 23.09.14 27.09.14 24.09.14 24.09.14 - 28.09.14 28.09.14 24.09.14
_ Max-Zeit 16:53 02:53 09:53 18:53 14:53 - 17:53 16:53 14:53
Maximum _ 33,9 C 87 % 998,2 hPa 0,8 l/m 9,1 km/h
W-SW
- 17,8 C 33,9 C 5,0 km/h
W-SW
Durchschnitt _ 14,3 C 73 % 992,4 hPa #3,7 l/m 0,3 km/h SO 9,1 C 14,3 C 0,2 km/h
www.sexauwetter.de